Time;durP1;ratioP1;P1;durP2;ratioP2;P2;SDS_P1;SDS_P2;PMS_P1;PMS_P2;Temp;Humidity;BMP_temperature;BMP_pressure;BME280_temperature;BME280_humidity;BME280_pressure;Samples;Min_cycle;Max_cycle;Signal;HPM_P1;HPM_P2
2021/12/03 00:00:55;;;;;;;8.75;5.53;;;;;;;;;;4978198;28;20045;-74
2021/12/03 00:03:20;;;;;;;8.05;6.15;;;;;;;;;;4971955;28;20396;-74
2021/12/03 00:05:46;;;;;;;7.82;6.15;;;;;;;;;;4976387;28;20034;-74
2021/12/03 00:08:11;;;;;;;9.13;6.07;;;;;;;;;;4990225;28;20500;-74
2021/12/03 00:10:37;;;;;;;9.88;6.18;;;;;;;;;;4993892;28;20024;-74
2021/12/03 00:13:04;;;;;;;8.35;5.70;;;;;;;;;;4993531;28;20022;-74
2021/12/03 00:15:29;;;;;;;7.40;5.85;;;;;;;;;;4985773;28;20506;-74
2021/12/03 00:17:54;;;;;;;8.52;6.45;;;;;;;;;;4992617;28;20026;-73
2021/12/03 00:20:20;;;;;;;7.18;5.68;;;;;;;;;;4994579;28;20030;-74
2021/12/03 00:22:47;;;;;;;8.00;6.15;;;;;;;;;;4993322;28;20152;-75
2021/12/03 00:25:13;;;;;;;8.52;5.95;;;;;;;;;;4960754;28;20049;-75
2021/12/03 00:27:38;;;;;;;8.38;5.43;;;;;;;;;;4975620;28;20068;-75
2021/12/03 00:30:04;;;;;;;8.38;6.03;;;;;;;;;;4968321;28;20477;-75
2021/12/03 00:32:30;;;;;;;7.68;5.82;;;;;;;;;;4993102;28;20452;-75
2021/12/03 00:34:55;;;;;;;6.18;5.10;;;;;;;;;;4993070;28;20028;-75
2021/12/03 00:37:20;;;;;;;8.55;5.10;;;;;;;;;;4992203;28;20029;-74
2021/12/03 00:39:46;;;;;;;7.50;5.40;;;;;;;;;;4994111;28;20022;-75
2021/12/03 00:42:15;;;;;;;8.40;4.82;;;;;;;;;;4986123;28;20022;-75
2021/12/03 00:44:41;;;;;;;9.20;5.35;;;;;;;;;;4992698;28;20100;-74
2021/12/03 00:47:06;;;;;;;7.32;5.30;;;;;;;;;;4981504;28;20054;-75
2021/12/03 00:49:31;;;;;;;8.90;5.47;;;;;;;;;;4972825;28;20497;-75
2021/12/03 00:51:57;;;;;;;6.32;4.90;;;;;;;;;;4973280;28;20039;-75
2021/12/03 00:54:22;;;;;;;7.30;4.80;;;;;;;;;;4974512;28;20397;-76
2021/12/03 00:56:47;;;;;;;9.65;6.30;;;;;;;;;;4974262;28;20034;-76
2021/12/03 00:59:13;;;;;;;8.05;5.78;;;;;;;;;;4973152;28;20041;-75
2021/12/03 01:01:38;;;;;;;7.60;5.38;;;;;;;;;;4987925;28;20146;-75
2021/12/03 01:04:04;;;;;;;9.32;6.25;;;;;;;;;;4993810;28;20030;-74
2021/12/03 01:06:29;;;;;;;7.85;6.25;;;;;;;;;;4975754;28;20033;-75
2021/12/03 01:08:55;;;;;;;8.25;5.93;;;;;;;;;;4992073;28;20374;-75
2021/12/03 01:11:20;;;;;;;8.27;6.03;;;;;;;;;;4993518;28;20396;-75
2021/12/03 01:13:45;;;;;;;8.05;6.03;;;;;;;;;;4975867;28;20492;-75
2021/12/03 01:16:11;;;;;;;9.48;6.63;;;;;;;;;;4975825;28;20436;-75
2021/12/03 01:18:37;;;;;;;11.65;6.93;;;;;;;;;;4990406;28;20050;-75
2021/12/03 01:21:02;;;;;;;12.10;6.70;;;;;;;;;;4993009;28;20500;-75
2021/12/03 01:23:28;;;;;;;10.80;6.72;;;;;;;;;;4975871;28;20370;-75
2021/12/03 01:25:53;;;;;;;11.57;6.88;;;;;;;;;;4975087;28;20535;-73
2021/12/03 01:28:19;;;;;;;11.10;7.13;;;;;;;;;;4991336;28;20037;-74
2021/12/03 01:30:44;;;;;;;9.95;7.22;;;;;;;;;;4990265;28;20117;-75
2021/12/03 01:33:09;;;;;;;11.88;7.78;;;;;;;;;;4988523;28;20500;-75
2021/12/03 01:35:36;;;;;;;11.32;7.75;;;;;;;;;;4987489;28;20033;-75
2021/12/03 01:38:02;;;;;;;8.93;6.95;;;;;;;;;;4991324;28;20105;-75
2021/12/03 01:40:28;;;;;;;11.75;7.38;;;;;;;;;;4974438;28;20034;-76
2021/12/03 01:42:53;;;;;;;8.85;6.47;;;;;;;;;;4975431;28;20030;-75
2021/12/03 01:45:21;;;;;;;10.05;6.15;;;;;;;;;;4990918;28;20668;-75
2021/12/03 01:47:47;;;;;;;8.45;6.47;;;;;;;;;;4992815;28;20513;-75
2021/12/03 01:50:13;;;;;;;10.20;7.30;;;;;;;;;;4974247;28;20057;-75
2021/12/03 01:52:38;;;;;;;9.45;6.45;;;;;;;;;;4991299;28;20027;-75
2021/12/03 01:55:04;;;;;;;9.82;6.15;;;;;;;;;;4991424;28;20068;-74
2021/12/03 01:57:30;;;;;;;7.35;5.47;;;;;;;;;;4975256;28;20041;-75
2021/12/03 01:59:55;;;;;;;6.78;4.88;;;;;;;;;;4989703;28;20022;-75
2021/12/03 02:02:20;;;;;;;7.45;5.00;;;;;;;;;;4984109;28;20476;-75
2021/12/03 02:04:46;;;;;;;5.07;4.45;;;;;;;;;;4991282;28;20485;-74
2021/12/03 02:07:11;;;;;;;5.18;4.68;;;;;;;;;;4990769;28;20511;-75
2021/12/03 02:09:36;;;;;;;7.90;5.00;;;;;;;;;;4991742;28;20101;-74
2021/12/03 02:12:02;;;;;;;5.93;4.45;;;;;;;;;;4991808;28;20477;-75
2021/12/03 02:14:27;;;;;;;6.43;4.57;;;;;;;;;;4992246;28;20034;-74
2021/12/03 02:16:53;;;;;;;6.18;4.40;;;;;;;;;;4990436;28;20026;-75
2021/12/03 02:19:18;;;;;;;7.50;4.88;;;;;;;;;;4992607;28;20456;-74
2021/12/03 02:21:44;;;;;;;6.70;5.05;;;;;;;;;;4989383;28;20445;-74
2021/12/03 02:24:09;;;;;;;6.70;5.20;;;;;;;;;;4991172;28;20338;-75
2021/12/03 02:26:35;;;;;;;6.22;4.40;;;;;;;;;;4974706;28;20473;-75
2021/12/03 02:29:00;;;;;;;7.95;4.60;;;;;;;;;;4992018;28;20169;-74
2021/12/03 02:31:25;;;;;;;7.20;4.88;;;;;;;;;;4996100;28;20112;-75
2021/12/03 02:33:51;;;;;;;6.47;4.82;;;;;;;;;;4991900;28;20022;-74
2021/12/03 02:36:17;;;;;;;7.93;4.35;;;;;;;;;;4989838;28;20073;-75
2021/12/03 02:38:42;;;;;;;6.75;4.57;;;;;;;;;;4981876;28;20612;-75
2021/12/03 02:41:08;;;;;;;7.18;4.85;;;;;;;;;;4990967;28;20106;-75
2021/12/03 02:43:33;;;;;;;5.60;4.18;;;;;;;;;;4989631;28;20031;-74
2021/12/03 02:45:58;;;;;;;6.13;4.43;;;;;;;;;;4989646;28;20030;-75
2021/12/03 02:48:24;;;;;;;6.53;4.63;;;;;;;;;;4990030;28;20085;-74
2021/12/03 02:50:50;;;;;;;8.90;4.25;;;;;;;;;;4989097;28;20026;-75
2021/12/03 02:53:15;;;;;;;5.00;4.20;;;;;;;;;;4983078;28;20045;-74
2021/12/03 02:55:40;;;;;;;5.38;4.50;;;;;;;;;;4989528;28;20027;-74
2021/12/03 02:58:06;;;;;;;6.35;4.30;;;;;;;;;;4973707;28;20429;-74
2021/12/03 03:00:31;;;;;;;6.57;5.20;;;;;;;;;;4988931;28;20042;-75
2021/12/03 03:02:57;;;;;;;5.85;4.68;;;;;;;;;;4988277;28;20121;-75
2021/12/03 03:05:23;;;;;;;9.02;4.68;;;;;;;;;;4990702;28;20044;-74
2021/12/03 03:07:48;;;;;;;6.43;4.82;;;;;;;;;;4989083;28;20045;-74
2021/12/03 03:10:15;;;;;;;6.15;4.45;;;;;;;;;;4989557;28;20026;-75
2021/12/03 03:12:41;;;;;;;6.68;4.90;;;;;;;;;;4988204;28;20469;-75
2021/12/03 03:15:07;;;;;;;6.75;4.45;;;;;;;;;;4989269;28;20030;-74
2021/12/03 03:17:32;;;;;;;6.32;4.65;;;;;;;;;;4989652;28;20041;-75
2021/12/03 03:19:58;;;;;;;6.57;5.05;;;;;;;;;;4989513;28;20026;-75
2021/12/03 03:22:24;;;;;;;6.80;4.60;;;;;;;;;;4987970;28;20034;-75
2021/12/03 03:24:50;;;;;;;6.13;5.20;;;;;;;;;;4973017;28;20042;-75
2021/12/03 03:27:15;;;;;;;8.20;4.72;;;;;;;;;;4972980;28;20038;-74
2021/12/03 03:29:42;;;;;;;7.10;4.80;;;;;;;;;;4989209;28;20077;-74
2021/12/03 03:32:08;;;;;;;7.45;4.95;;;;;;;;;;4972332;28;20062;-74
2021/12/03 03:34:33;;;;;;;6.00;4.53;;;;;;;;;;4971916;28;20556;-74
2021/12/03 03:36:59;;;;;;;10.50;4.90;;;;;;;;;;4989694;28;20030;-75
2021/12/03 03:39:24;;;;;;;6.70;5.32;;;;;;;;;;4990654;28;20026;-74
2021/12/03 03:41:49;;;;;;;11.65;6.40;;;;;;;;;;4989087;28;20030;-75
2021/12/03 03:44:16;;;;;;;6.88;5.57;;;;;;;;;;4988304;28;20113;-75
2021/12/03 03:46:42;;;;;;;9.98;6.20;;;;;;;;;;4990506;28;20041;-74
2021/12/03 03:49:07;;;;;;;9.75;6.35;;;;;;;;;;4991277;28;20036;-75
2021/12/03 03:51:33;;;;;;;8.68;5.90;;;;;;;;;;4992902;28;20113;-75
2021/12/03 03:53:58;;;;;;;9.70;6.85;;;;;;;;;;4991339;28;20446;-74
2021/12/03 03:56:23;;;;;;;10.30;6.40;;;;;;;;;;4993931;28;20484;-74
2021/12/03 03:58:49;;;;;;;8.93;6.57;;;;;;;;;;4993708;28;20484;-74
2021/12/03 04:01:14;;;;;;;9.50;6.35;;;;;;;;;;4993749;28;20061;-74
2021/12/03 04:03:41;;;;;;;8.73;6.35;;;;;;;;;;4992605;28;20026;-74
2021/12/03 04:06:07;;;;;;;10.38;6.63;;;;;;;;;;4976425;28;20081;-74
2021/12/03 04:08:32;;;;;;;8.30;6.53;;;;;;;;;;4992428;28;20497;-74
2021/12/03 04:10:57;;;;;;;10.18;6.53;;;;;;;;;;4990673;28;20401;-73
2021/12/03 04:13:23;;;;;;;9.30;6.85;;;;;;;;;;4985825;28;20029;-73
2021/12/03 04:15:48;;;;;;;8.77;6.20;;;;;;;;;;4991193;28;20410;-74
2021/12/03 04:18:14;;;;;;;10.13;5.97;;;;;;;;;;4992738;28;20085;-74
2021/12/03 04:20:39;;;;;;;8.95;5.97;;;;;;;;;;4992063;28;20042;-75
2021/12/03 04:23:05;;;;;;;7.30;6.20;;;;;;;;;;4975501;28;20544;-75
2021/12/03 04:25:30;;;;;;;7.57;6.05;;;;;;;;;;4991152;28;20037;-75
2021/12/03 04:27:55;;;;;;;7.88;6.43;;;;;;;;;;4992328;28;20041;-74
2021/12/03 04:30:23;;;;;;;9.02;6.75;;;;;;;;;;4991765;28;20026;-74
2021/12/03 04:32:48;;;;;;;8.35;5.90;;;;;;;;;;4975608;28;20036;-74
2021/12/03 04:35:13;;;;;;;6.97;5.93;;;;;;;;;;4973673;28;20034;-74
2021/12/03 04:37:39;;;;;;;9.70;6.10;;;;;;;;;;4988224;28;20057;-75
2021/12/03 04:40:05;;;;;;;8.48;6.15;;;;;;;;;;4991303;28;20409;-74
2021/12/03 04:42:30;;;;;;;8.60;5.95;;;;;;;;;;4975260;28;20042;-74
2021/12/03 04:44:56;;;;;;;8.98;5.38;;;;;;;;;;4992033;28;20452;-74
2021/12/03 04:47:21;;;;;;;7.70;5.68;;;;;;;;;;4992282;28;20477;-70
2021/12/03 04:49:46;;;;;;;7.80;5.68;;;;;;;;;;4991021;28;20034;-70
2021/12/03 04:52:12;;;;;;;9.00;5.97;;;;;;;;;;4993149;28;20042;-70
2021/12/03 04:54:37;;;;;;;9.68;4.97;;;;;;;;;;4991982;28;20026;-71
2021/12/03 04:57:03;;;;;;;5.50;4.63;;;;;;;;;;4990181;28;20022;-71
2021/12/03 04:59:28;;;;;;;5.68;4.25;;;;;;;;;;4992854;28;20044;-71
2021/12/03 05:01:56;;;;;;;5.38;4.63;;;;;;;;;;4991398;28;20390;-71
2021/12/03 05:04:22;;;;;;;7.72;4.43;;;;;;;;;;4991396;28;20055;-70
2021/12/03 05:07:05;;;;;;;4.80;3.53;;;;;;;;;;4989707;28;20038;-70
2021/12/03 05:09:31;;;;;;;5.63;4.03;;;;;;;;;;4991871;28;20080;-70
2021/12/03 05:11:56;;;;;;;4.68;3.88;;;;;;;;;;4992334;28;20109;-70
2021/12/03 05:14:22;;;;;;;6.85;4.35;;;;;;;;;;4989281;28;20448;-70
2021/12/03 05:16:48;;;;;;;5.13;4.10;;;;;;;;;;4991208;28;20030;-70
2021/12/03 05:19:14;;;;;;;5.70;4.60;;;;;;;;;;4992280;28;20445;-70
2021/12/03 05:21:40;;;;;;;9.02;5.57;;;;;;;;;;4992072;28;20041;-70
2021/12/03 05:24:05;;;;;;;7.03;5.22;;;;;;;;;;4991654;28;20117;-70
2021/12/03 05:26:31;;;;;;;9.48;5.40;;;;;;;;;;4990674;28;20034;-71
2021/12/03 05:28:56;;;;;;;8.70;5.97;;;;;;;;;;4974692;28;20061;-70
2021/12/03 05:31:21;;;;;;;7.93;5.90;;;;;;;;;;4991931;28;20449;-70
2021/12/03 05:33:47;;;;;;;8.45;5.78;;;;;;;;;;4991218;28;20566;-70
2021/12/03 05:36:12;;;;;;;9.20;5.53;;;;;;;;;;4988076;28;20469;-70
2021/12/03 05:38:38;;;;;;;9.57;5.55;;;;;;;;;;4988395;28;20065;-70
2021/12/03 05:41:03;;;;;;;9.15;5.95;;;;;;;;;;4983484;28;20030;-70
2021/12/03 05:43:28;;;;;;;9.02;6.25;;;;;;;;;;4991388;28;20035;-70
2021/12/03 05:45:54;;;;;;;9.70;5.65;;;;;;;;;;4990731;28;20057;-70
2021/12/03 05:48:19;;;;;;;11.43;6.28;;;;;;;;;;4988719;28;20102;-70
2021/12/03 05:50:45;;;;;;;8.40;5.72;;;;;;;;;;4992036;28;20030;-70
2021/12/03 05:53:10;;;;;;;11.52;5.68;;;;;;;;;;4992001;28;20029;-71
2021/12/03 05:55:35;;;;;;;7.95;5.85;;;;;;;;;;4991485;28;20030;-71
2021/12/03 05:58:01;;;;;;;8.13;5.95;;;;;;;;;;4990647;28;20034;-71
2021/12/03 06:00:32;;;;;;;7.68;5.28;;;;;;;;;;4991101;28;20038;-71
2021/12/03 06:02:57;;;;;;;7.65;5.22;;;;;;;;;;4991417;28;20026;-71
2021/12/03 06:05:24;;;;;;;10.43;5.68;;;;;;;;;;4991244;28;20160;-71
2021/12/03 06:07:49;;;;;;;7.60;4.88;;;;;;;;;;4990877;28;20030;-70
2021/12/03 06:10:14;;;;;;;9.35;5.63;;;;;;;;;;4991478;28;20022;-71
2021/12/03 06:12:40;;;;;;;5.72;4.95;;;;;;;;;;4990742;28;20037;-71
2021/12/03 06:15:05;;;;;;;6.68;4.97;;;;;;;;;;4991141;28;20131;-70
2021/12/03 06:17:31;;;;;;;9.30;5.68;;;;;;;;;;4991319;28;20050;-70
2021/12/03 06:19:56;;;;;;;10.50;6.10;;;;;;;;;;4990366;28;20053;-71
2021/12/03 06:22:21;;;;;;;8.32;5.95;;;;;;;;;;4991889;28;20034;-71
2021/12/03 06:24:47;;;;;;;13.60;5.88;;;;;;;;;;4990748;28;20397;-70
2021/12/03 06:27:12;;;;;;;9.10;5.93;;;;;;;;;;4983254;28;20026;-71
2021/12/03 06:29:37;;;;;;;6.47;5.65;;;;;;;;;;4990228;28;20109;-71
2021/12/03 06:32:03;;;;;;;9.20;5.30;;;;;;;;;;4989545;28;20144;-70
2021/12/03 06:34:28;;;;;;;7.03;5.05;;;;;;;;;;4990568;28;20045;-71
2021/12/03 06:36:53;;;;;;;6.32;5.45;;;;;;;;;;4989876;28;20033;-71
2021/12/03 06:39:19;;;;;;;9.05;5.75;;;;;;;;;;4990014;28;20548;-71
2021/12/03 06:41:44;;;;;;;7.60;6.05;;;;;;;;;;4991501;28;20132;-71
2021/12/03 06:44:09;;;;;;;10.93;5.65;;;;;;;;;;4990654;28;20026;-71
2021/12/03 06:46:35;;;;;;;8.93;5.10;;;;;;;;;;4989381;28;20026;-70
2021/12/03 06:49:01;;;;;;;9.10;6.07;;;;;;;;;;4984829;28;20057;-70
2021/12/03 06:51:26;;;;;;;9.88;5.68;;;;;;;;;;4973992;28;20114;-70
2021/12/03 06:54:02;;;;;;;7.97;5.90;;;;;;;;;;4970560;28;20026;-71
2021/12/03 06:56:48;;;;;;;7.32;5.40;;;;;;;;;;4971558;28;20050;-70
2021/12/03 06:59:14;;;;;;;7.28;4.72;;;;;;;;;;4988802;28;20613;-70
2021/12/03 07:01:39;;;;;;;7.05;5.43;;;;;;;;;;4987188;28;20101;-70
2021/12/03 07:04:04;;;;;;;6.72;5.47;;;;;;;;;;4990814;28;20036;-70
2021/12/03 07:06:30;;;;;;;8.00;5.57;;;;;;;;;;4990696;28;20026;-69
2021/12/03 07:08:55;;;;;;;7.45;5.15;;;;;;;;;;4990633;28;20038;-70
2021/12/03 07:11:20;;;;;;;11.88;5.65;;;;;;;;;;4989918;28;20022;-70
2021/12/03 07:13:46;;;;;;;9.27;5.57;;;;;;;;;;4989770;28;20113;-70
2021/12/03 07:16:11;;;;;;;8.10;5.15;;;;;;;;;;4990415;28;20105;-70
2021/12/03 07:18:37;;;;;;;7.47;5.20;;;;;;;;;;4990419;28;20022;-70
2021/12/03 07:21:03;;;;;;;7.45;5.57;;;;;;;;;;4990020;28;20031;-70
2021/12/03 07:23:28;;;;;;;8.73;5.50;;;;;;;;;;4991932;28;20032;-70
2021/12/03 07:25:53;;;;;;;7.53;6.03;;;;;;;;;;4992664;28;20461;-70
2021/12/03 07:28:19;;;;;;;14.30;7.05;;;;;;;;;;4975420;28;20038;-70
2021/12/03 07:30:45;;;;;;;6.45;5.47;;;;;;;;;;4973288;28;20398;-70
2021/12/03 07:33:14;;;;;;;6.70;4.60;;;;;;;;;;4988678;28;20037;-70
2021/12/03 07:35:39;;;;;;;9.00;5.32;;;;;;;;;;4991768;28;20022;-70
2021/12/03 07:38:04;;;;;;;6.65;4.80;;;;;;;;;;4989140;28;20559;-70
2021/12/03 07:40:30;;;;;;;8.77;5.60;;;;;;;;;;4991488;28;20028;-70
2021/12/03 07:42:55;;;;;;;9.63;5.60;;;;;;;;;;4989879;28;20141;-70
2021/12/03 07:45:21;;;;;;;5.90;4.90;;;;;;;;;;4992858;28;20030;-70
2021/12/03 07:47:46;;;;;;;6.70;4.40;;;;;;;;;;4994444;28;20037;-70
2021/12/03 07:50:12;;;;;;;7.75;4.78;;;;;;;;;;4993471;28;20057;-70
2021/12/03 07:52:37;;;;;;;8.40;4.75;;;;;;;;;;4992338;28;20045;-70
2021/12/03 07:55:04;;;;;;;4.70;4.15;;;;;;;;;;4993113;28;20018;-70
2021/12/03 07:57:29;;;;;;;6.95;4.30;;;;;;;;;;4994136;28;20034;-70
2021/12/03 07:59:54;;;;;;;6.18;4.28;;;;;;;;;;4993645;28;20037;-70
2021/12/03 08:02:20;;;;;;;7.15;4.85;;;;;;;;;;4990273;28;20528;-70
2021/12/03 08:04:45;;;;;;;5.72;4.97;;;;;;;;;;4993916;28;20022;-70
2021/12/03 08:07:11;;;;;;;8.93;5.32;;;;;;;;;;4993768;28;20033;-70
2021/12/03 08:09:37;;;;;;;7.13;4.78;;;;;;;;;;4994207;28;20044;-70
2021/12/03 08:12:02;;;;;;;7.25;4.63;;;;;;;;;;4990426;28;20105;-70
2021/12/03 08:14:28;;;;;;;8.15;5.60;;;;;;;;;;4972770;28;20045;-70
2021/12/03 08:16:53;;;;;;;7.75;4.95;;;;;;;;;;4973999;28;20441;-70
2021/12/03 08:19:18;;;;;;;6.50;5.07;;;;;;;;;;4979447;28;20057;-70
2021/12/03 08:21:44;;;;;;;8.75;4.15;;;;;;;;;;4993142;28;20404;-70
2021/12/03 08:24:09;;;;;;;6.07;4.13;;;;;;;;;;4980926;28;20077;-70
2021/12/03 08:26:34;;;;;;;4.57;3.88;;;;;;;;;;4973982;28;20023;-70
2021/12/03 08:29:00;;;;;;;4.88;4.38;;;;;;;;;;4974093;28;20030;-70
2021/12/03 08:31:25;;;;;;;6.97;4.57;;;;;;;;;;4973161;28;20031;-71
2021/12/03 08:33:52;;;;;;;5.13;4.35;;;;;;;;;;4973110;28;20026;-71
2021/12/03 08:36:17;;;;;;;5.55;3.95;;;;;;;;;;4983793;28;20034;-70
2021/12/03 08:38:43;;;;;;;5.00;3.70;;;;;;;;;;4991192;28;20080;-71
2021/12/03 08:41:10;;;;;;;6.28;4.07;;;;;;;;;;4986174;28;20098;-71
2021/12/03 08:43:35;;;;;;;5.53;4.43;;;;;;;;;;4987295;28;20085;-69
2021/12/03 08:46:09;;;;;;;6.07;3.60;;;;;;;;;;4992964;28;20026;-71
2021/12/03 08:48:38;;;;;;;4.40;4.00;;;;;;;;;;4987950;28;20038;-71
2021/12/03 08:56:21;;;;;;;4.53;3.53;;;;;;;;;;4993048;28;20041;-71
2021/12/03 08:58:47;;;;;;;4.57;3.80;;;;;;;;;;4992383;28;20026;-70
2021/12/03 09:01:13;;;;;;;3.80;3.50;;;;;;;;;;4991340;28;20138;-71
2021/12/03 09:03:39;;;;;;;7.90;3.90;;;;;;;;;;4992857;28;20413;-71
2021/12/03 09:06:04;;;;;;;5.70;4.15;;;;;;;;;;4991376;28;20022;-70
2021/12/03 09:08:30;;;;;;;5.82;4.10;;;;;;;;;;4992796;28;20048;-70
2021/12/03 09:10:55;;;;;;;7.65;3.85;;;;;;;;;;4978540;28;20426;-70
2021/12/03 09:13:20;;;;;;;6.93;3.95;;;;;;;;;;4985546;28;20114;-71
2021/12/03 09:15:54;;;;;;;4.65;4.03;;;;;;;;;;4992372;28;20066;-71
2021/12/03 09:21:05;;;;;;;8.32;4.20;;;;;;;;;;4990995;28;20134;-71
2021/12/03 09:26:07;;;;;;;6.85;4.97;;;;;;;;;;4992204;28;20041;-71
2021/12/03 09:28:33;;;;;;;10.45;5.30;;;;;;;;;;4991685;28;20065;-71
2021/12/03 09:30:59;;;;;;;7.85;6.18;;;;;;;;;;4989885;28;20548;-71
2021/12/03 09:33:27;;;;;;;7.60;5.55;;;;;;;;;;4988543;28;20109;-70
2021/12/03 09:35:56;;;;;;;7.57;5.43;;;;;;;;;;4988552;28;20029;-70
2021/12/03 09:38:21;;;;;;;6.95;5.05;;;;;;;;;;4991657;28;20030;-70
2021/12/03 09:40:47;;;;;;;8.80;5.63;;;;;;;;;;4991803;28;20026;-70
2021/12/03 09:43:12;;;;;;;7.90;5.95;;;;;;;;;;4984577;28;20053;-70
2021/12/03 09:45:39;;;;;;;6.63;5.30;;;;;;;;;;4991578;28;20037;-70
2021/12/03 09:48:26;;;;;;;6.60;5.57;;;;;;;;;;4989685;28;20029;-70
2021/12/03 09:50:52;;;;;;;8.07;5.85;;;;;;;;;;4990926;28;20022;-70
2021/12/03 09:53:41;;;;;;;7.80;5.95;;;;;;;;;;4991373;28;20041;-70
2021/12/03 09:56:10;;;;;;;7.60;5.82;;;;;;;;;;4991071;28;20026;-70
2021/12/03 10:01:08;;;;;;;8.73;5.57;;;;;;;;;;4989755;28;20520;-71
2021/12/03 10:03:47;;;;;;;8.77;6.15;;;;;;;;;;4990831;28;20026;-70
2021/12/03 10:17:37;;;;;;;;;;;;;;;;;;4991152;28;20481;-70
2021/12/03 10:20:12;;;;;;;6.78;4.68;;;;;;;;;;4990522;28;19917;-70
2021/12/03 10:33:01;;;;;;;11.70;4.63;;;;;;;;;;4991008;28;20034;-70
2021/12/03 10:43:41;;;;;;;8.32;4.63;;;;;;;;;;4981932;28;20030;-70
2021/12/03 10:59:33;;;;;;;6.90;5.25;;;;;;;;;;4987070;28;20062;-70
2021/12/03 11:16:39;;;;;;;6.03;4.97;;;;;;;;;;4990793;28;20065;-71
2021/12/03 11:25:14;;;;;;;4.80;4.25;;;;;;;;;;4982745;28;20429;-70
2021/12/03 11:50:34;;;;;;;5.32;4.60;;;;;;;;;;4989483;28;20029;-69
2021/12/03 12:04:10;;;;;;;4.18;3.78;;;;;;;;;;4983681;28;20022;-70
2021/12/03 12:25:38;;;;;;;5.40;4.03;;;;;;;;;;5011378;28;20097;-75
2021/12/03 12:37:27;;;;;;;4.68;3.80;;;;;;;;;;5010071;28;20037;-75
2021/12/03 13:05:41;;;;;;;4.63;3.50;;;;;;;;;;5008488;28;20041;-76
2021/12/03 13:32:35;;;;;;;2.65;2.45;;;;;;;;;;5007409;28;20034;-76
2021/12/03 13:56:28;;;;;;;3.13;2.60;;;;;;;;;;5009984;28;20034;-77
2021/12/03 14:12:21;;;;;;;3.00;2.58;;;;;;;;;;5009546;28;20372;-77
2021/12/03 14:36:10;;;;;;;;;;;;;;;;;;5007487;28;20428;-77
2021/12/03 14:42:00;;;;;;;5.57;3.53;;;;;;;;;;4991520;28;20037;-76
2021/12/03 14:44:28;;;;;;;3.92;3.13;;;;;;;;;;5006681;28;20120;-75
2021/12/03 14:49:45;;;;;;;6.00;4.50;;;;;;;;;;5010105;28;20026;-76
2021/12/03 14:52:23;;;;;;;8.73;5.47;;;;;;;;;;5007041;28;20030;-75
2021/12/03 14:55:01;;;;;;;7.93;5.10;;;;;;;;;;5011300;28;20476;-75
2021/12/03 14:57:39;;;;;;;6.65;4.88;;;;;;;;;;5007089;28;20160;-74
2021/12/03 15:00:19;;;;;;;3.92;3.50;;;;;;;;;;4999250;28;20030;-75
2021/12/03 15:08:10;;;;;;;3.22;2.50;;;;;;;;;;5009584;28;20025;-76
2021/12/03 15:13:31;;;;;;;3.10;2.80;;;;;;;;;;5010648;28;20080;-76
2021/12/03 15:31:46;;;;;;;3.78;3.42;;;;;;;;;;5006009;28;20507;-76
2021/12/03 15:34:31;;;;;;;8.20;4.03;;;;;;;;;;5007461;28;20060;-77
2021/12/03 15:53:46;;;;;;;4.88;3.42;;;;;;;;;;5015040;28;20553;-76
2021/12/03 15:55:57;;;;;;;4.30;3.47;;;;;;;;;;5011141;28;20495;-78
2021/12/03 16:03:28;;;;;;;10.75;3.30;;;;;;;;;;5009875;28;20392;-78
2021/12/03 16:04:20;;;;;;;4.38;3.28;;;;;;;;;;4995239;28;20032;-78
2021/12/03 16:06:56;;;;;;;3.88;2.75;;;;;;;;;;5008483;28;20120;-78
2021/12/03 16:17:30;;;;;;;5.88;3.78;;;;;;;;;;5014912;28;19913;-79
2021/12/03 16:20:19;;;;;;;6.18;4.15;;;;;;;;;;5014251;28;20166;-78
2021/12/03 16:52:30;;;;;;;5.00;3.38;;;;;;;;;;5012844;28;20123;-79
2021/12/03 16:54:57;;;;;;;4.68;3.25;;;;;;;;;;5010591;28;20060;-78
2021/12/03 16:57:43;;;;;;;3.83;2.88;;;;;;;;;;5008032;28;20440;-78
2021/12/03 17:00:29;;;;;;;7.40;3.90;;;;;;;;;;5009125;28;20169;-77
2021/12/03 17:03:43;;;;;;;4.28;3.30;;;;;;;;;;5000782;28;20040;-77
2021/12/03 17:19:34;;;;;;;5.55;3.10;;;;;;;;;;4996552;28;20481;-77
2021/12/03 17:45:51;;;;;;;4.82;3.83;;;;;;;;;;5003643;28;20045;-76
2021/12/03 17:48:32;;;;;;;6.03;4.18;;;;;;;;;;5010795;28;20551;-77
2021/12/03 17:51:11;;;;;;;4.60;3.55;;;;;;;;;;5009332;28;20026;-78
2021/12/03 17:56:21;;;;;;;5.50;3.42;;;;;;;;;;5006382;28;20076;-77
2021/12/03 17:58:53;;;;;;;6.13;3.70;;;;;;;;;;5009308;28;20116;-76
2021/12/03 18:01:23;;;;;;;4.50;3.65;;;;;;;;;;5008309;28;20046;-76
2021/12/03 18:43:44;;;;;;;3.30;2.78;;;;;;;;;;4987899;28;20041;-73
2021/12/03 18:56:33;;;;;;;2.67;2.47;;;;;;;;;;4987938;28;20065;-74
2021/12/03 18:59:03;;;;;;;3.47;3.00;;;;;;;;;;4965593;28;20038;-74
2021/12/03 19:01:30;;;;;;;3.35;2.83;;;;;;;;;;4981781;28;20508;-74
2021/12/03 19:09:12;;;;;;;2.22;2.03;;;;;;;;;;4979865;28;20401;-74
2021/12/03 19:11:43;;;;;;;5.05;3.00;;;;;;;;;;4980810;28;20035;-74
2021/12/03 19:14:08;;;;;;;4.03;2.55;;;;;;;;;;4978347;28;20033;-74
2021/12/03 19:16:35;;;;;;;4.22;2.50;;;;;;;;;;4987584;28;20022;-74
2021/12/03 19:19:01;;;;;;;2.33;2.13;;;;;;;;;;4970969;28;20030;-74
2021/12/03 19:21:27;;;;;;;2.90;2.60;;;;;;;;;;4993702;28;20027;-74
2021/12/03 19:23:55;;;;;;;3.38;2.50;;;;;;;;;;4976127;28;20540;-74
2021/12/03 19:26:21;;;;;;;3.30;2.15;;;;;;;;;;4990501;28;20034;-74
2021/12/03 19:28:47;;;;;;;4.00;2.35;;;;;;;;;;4971987;28;20022;-74
2021/12/03 19:31:12;;;;;;;4.63;2.38;;;;;;;;;;4991318;28;20085;-74
2021/12/03 19:33:37;;;;;;;2.50;2.15;;;;;;;;;;4990821;28;20057;-74
2021/12/03 19:36:04;;;;;;;2.65;2.45;;;;;;;;;;4993882;28;20030;-74
2021/12/03 19:38:30;;;;;;;4.10;2.53;;;;;;;;;;4959475;28;20480;-74
2021/12/03 19:40:59;;;;;;;4.40;2.60;;;;;;;;;;4976342;28;20077;-73
2021/12/03 19:43:40;;;;;;;2.85;2.00;;;;;;;;;;4991422;28;20068;-74
2021/12/03 19:46:06;;;;;;;3.72;2.50;;;;;;;;;;4993342;28;20492;-74
2021/12/03 19:48:39;;;;;;;2.08;1.75;;;;;;;;;;4992572;28;20499;-73
2021/12/03 19:51:12;;;;;;;2.20;2.00;;;;;;;;;;4994983;28;20045;-74
2021/12/03 19:53:44;;;;;;;2.27;2.00;;;;;;;;;;5007576;28;20089;-74
2021/12/03 19:56:09;;;;;;;2.50;1.90;;;;;;;;;;4983979;28;20279;-74
2021/12/03 19:58:34;;;;;;;2.50;2.00;;;;;;;;;;4991583;28;20033;-74
2021/12/03 20:01:00;;;;;;;2.47;2.08;;;;;;;;;;4982196;28;20097;-74
2021/12/03 20:03:25;;;;;;;2.35;1.77;;;;;;;;;;4973949;28;20027;-74
2021/12/03 20:05:50;;;;;;;1.65;1.55;;;;;;;;;;4986858;28;20027;-74
2021/12/03 20:08:17;;;;;;;2.53;2.20;;;;;;;;;;4974810;28;20038;-74
2021/12/03 20:10:46;;;;;;;2.40;2.00;;;;;;;;;;4987823;28;20045;-73
2021/12/03 20:13:12;;;;;;;3.28;2.35;;;;;;;;;;4986879;28;20026;-74
2021/12/03 20:20:41;;;;;;;3.42;2.65;;;;;;;;;;4988431;28;20041;-74
2021/12/03 20:23:24;;;;;;;2.60;1.83;;;;;;;;;;4991776;28;20037;-74
2021/12/03 20:28:48;;;;;;;2.53;2.25;;;;;;;;;;4969383;28;20188;-73
2021/12/03 20:31:16;;;;;;;5.57;2.03;;;;;;;;;;4968665;28;20053;-74
2021/12/03 20:36:34;;;;;;;2.67;2.13;;;;;;;;;;4987968;28;20347;-75
2021/12/03 20:39:07;;;;;;;3.28;1.90;;;;;;;;;;4990800;28;20410;-73
2021/12/03 20:41:51;;;;;;;2.08;1.98;;;;;;;;;;4992318;28;20042;-74
2021/12/03 20:47:18;;;;;;;1.90;1.70;;;;;;;;;;4991163;28;20272;-74
2021/12/03 20:50:08;;;;;;;1.92;1.52;;;;;;;;;;4986673;28;20038;-73
2021/12/03 21:10:54;;;;;;;2.65;2.05;;;;;;;;;;4991765;28;20038;-74
2021/12/03 21:13:25;;;;;;;2.38;2.00;;;;;;;;;;4985974;28;20027;-74
2021/12/03 21:21:04;;;;;;;2.00;1.60;;;;;;;;;;4990895;28;20089;-75
2021/12/03 21:23:33;;;;;;;1.88;1.58;;;;;;;;;;4975523;28;20038;-73
2021/12/03 21:25:59;;;;;;;1.40;1.30;;;;;;;;;;4984594;28;20034;-73
2021/12/03 21:31:04;;;;;;;2.55;1.73;;;;;;;;;;4989306;28;20038;-74
2021/12/03 21:39:03;;;;;;;2.88;1.92;;;;;;;;;;4989319;28;20037;-74
2021/12/03 21:41:29;;;;;;;3.53;1.85;;;;;;;;;;4981254;28;20085;-74
2021/12/03 21:44:14;;;;;;;1.73;1.50;;;;;;;;;;4983150;28;20555;-74
2021/12/03 21:46:42;;;;;;;1.73;1.45;;;;;;;;;;4988845;28;20396;-73
2021/12/03 21:49:08;;;;;;;4.85;2.47;;;;;;;;;;4986753;28;20026;-73
2021/12/03 21:51:34;;;;;;;3.85;2.65;;;;;;;;;;4984210;28;20149;-74
2021/12/03 21:54:01;;;;;;;4.13;2.97;;;;;;;;;;4970873;28;20029;-73
2021/12/03 21:56:27;;;;;;;2.80;2.55;;;;;;;;;;4987391;28;20481;-73
2021/12/03 21:58:52;;;;;;;1.67;1.58;;;;;;;;;;4985441;28;20102;-73
2021/12/03 22:01:18;;;;;;;2.00;1.60;;;;;;;;;;4970417;28;20118;-73
2021/12/03 22:03:43;;;;;;;4.25;2.90;;;;;;;;;;4968958;28;20037;-74
2021/12/03 22:06:08;;;;;;;5.47;2.95;;;;;;;;;;4986652;28;20051;-74
2021/12/03 22:08:34;;;;;;;5.65;3.10;;;;;;;;;;4988581;28;20622;-73
2021/12/03 22:10:59;;;;;;;3.85;2.80;;;;;;;;;;4990377;28;20018;-73
2021/12/03 22:13:25;;;;;;;2.90;2.47;;;;;;;;;;4989070;28;20022;-72
2021/12/03 22:15:51;;;;;;;3.45;2.17;;;;;;;;;;4986956;28;20065;-72
2021/12/03 22:18:17;;;;;;;3.90;2.60;;;;;;;;;;4988160;28;20046;-72
2021/12/03 22:20:42;;;;;;;2.10;1.90;;;;;;;;;;4989173;28;20018;-72
2021/12/03 22:23:09;;;;;;;2.15;1.95;;;;;;;;;;4988751;28;20040;-72
2021/12/03 22:25:34;;;;;;;2.28;1.90;;;;;;;;;;4990087;28;20055;-72
2021/12/03 22:28:00;;;;;;;1.83;1.73;;;;;;;;;;4981799;28;20392;-71
2021/12/03 22:30:26;;;;;;;1.90;1.70;;;;;;;;;;4988951;28;20611;-72
2021/12/03 22:32:51;;;;;;;1.77;1.67;;;;;;;;;;4988352;28;20040;-71
2021/12/03 22:35:17;;;;;;;1.77;1.67;;;;;;;;;;4984886;28;20034;-72
2021/12/03 22:37:42;;;;;;;1.90;1.52;;;;;;;;;;4983113;28;20037;-72